Flight Track Log - Related Links

Times and Time Zones

All times are in EDT time to prevent confusion due to time zone crossing. See the DAL1818 flight status page for this flight to view local times or setup timezone preferences in your user account.

Time Position Orientation Groundspeed Altitude Reporting Facility
EDT Latitude Longitude Course Direction KTS MPH feet Rate Location/Type
Thu 09:36:43 AM 28.4167 -81.3000 210° Southwest 167 192 400  Level Orlando TRACON
Thu 09:37:55 AM 28.3667 -81.3333 270° West 209 241 3,400 2,773 Climbing Orlando TRACON
Thu 09:38:55 AM 28.3667 -81.4167 336° Northwest 286 329 6,500 3,100 Climbing Orlando TRACON
Thu 09:39:55 AM 28.4333 -81.4500 347° North 310 357 9,600 2,505 Climbing Orlando TRACON
Thu 09:41:57 AM 28.6308 -81.5019 349° North 360 414 14,100 2,426 Climbing Jacksonville Center
Thu 09:42:58 AM 28.7436 -81.5264 347° North 380 437 17,000 2,550 Climbing Jacksonville Center
Thu 09:43:57 AM 28.8567 -81.5556 348° North 401 461 19,200 2,200 Climbing Jacksonville Center
Thu 09:44:58 AM 28.9758 -81.5847 349° North 414 476 21,400 2,132 Climbing Jacksonville Center
Thu 09:45:58 AM 29.0972 -81.6117 347° North 425 489 23,500 2,000 Climbing Jacksonville Center
Thu 09:46:58 AM 29.2186 -81.6433 347° North 435 501 25,400 1,900 Climbing Jacksonville Center
Thu 09:47:58 AM 29.3297 -81.6731 347° North 441 507 27,300 1,750 Climbing Jacksonville Center
Thu 09:48:58 AM 29.4531 -81.7047 348° North 447 514 28,900 1,750 Climbing Jacksonville Center
Thu 09:49:58 AM 29.5786 -81.7367 352° North 452 520 30,800 1,900 Climbing Jacksonville Center
Thu 09:50:58 AM 29.7039 -81.7569 360° North 447 514 32,700 1,100 Climbing Jacksonville Center
Thu 09:51:58 AM 29.8272 -81.7578 358° North 447 514 33,000 150 Climbing Jacksonville Center
Thu 09:52:58 AM 29.9525 -81.7636 357° North 442 509 33,000  Level Jacksonville Center
Thu 09:53:58 AM 30.0903 -81.7714 358° North 448 516 33,000  Level Jacksonville Center
Thu 09:54:58 AM 30.2158 -81.7772 358° North 455 524 33,000  Level Jacksonville Center
Thu 09:55:58 AM 30.3347 -81.7831 359° North 464 534 33,000  Level Jacksonville Center
Thu 09:56:58 AM 30.4789 -81.7861 358° North 464 534 33,000  Level Jacksonville Center
Thu 09:57:58 AM 30.6042 -81.7919 358° North 450 518 33,000  Level Jacksonville Center
Thu 09:58:58 AM 30.7294 -81.7978 351° North 450 518 33,000  Level Jacksonville Center
Thu 09:59:57 AM 30.8550 -81.8206 333° Northwest 450 518 33,000  Level Jacksonville Center
Thu 10:00:58 AM 30.9642 -81.8847 333° Northwest 439 505 33,000  Level Jacksonville Center
Thu 10:01:58 AM 31.0753 -81.9514 333° Northwest 439 505 33,000  Level Jacksonville Center
Thu 10:02:58 AM 31.1842 -82.0158 332° Northwest 439 505 33,000  Level Jacksonville Center
Thu 10:03:58 AM 31.2933 -82.0831 335° Northwest 439 505 33,000  Level Jacksonville Center
Thu 10:04:58 AM 31.4064 -82.1453 332° Northwest 439 505 33,000  Level Jacksonville Center
Thu 10:05:57 AM 31.5111 -82.2103 334° Northwest 448 516 33,000  Level Jacksonville Center
Thu 10:06:58 AM 31.6200 -82.2728 334° Northwest 457 526 33,000  Level Jacksonville Center
Thu 10:09:04 AM 31.8694 -82.4150 325° Northwest 452 520 33,000  Level Atlanta Center
Thu 10:10:04 AM 31.9708 -82.4989 317° Northwest 452 520 33,000  Level Atlanta Center
Thu 10:11:04 AM 32.0553 -82.5906 319° Northwest 451 519 33,000 -100 Level Atlanta Center
Thu 10:12:04 AM 32.1503 -82.6872 319° Northwest 451 519 32,800 -850 Descending Atlanta Center
Thu 10:13:04 AM 32.2433 -82.7839 318° Northwest 446 513 31,300 -1,500 Descending Atlanta Center
Thu 10:14:04 AM 32.3403 -82.8883 320° Northwest 451 519 29,800 -1,350 Descending Atlanta Center
Thu 10:15:04 AM 32.4372 -82.9856 318° Northwest 451 519 28,600 -1,150 Descending Atlanta Center
Thu 10:16:04 AM 32.5339 -83.0878 318° Northwest 456 525 27,500 -1,100 Descending Atlanta Center
Thu 10:17:04 AM 32.6286 -83.1881 320° Northwest 456 525 26,400 -1,500 Descending Atlanta Center
Thu 10:18:04 AM 32.7253 -83.2858 318° Northwest 456 525 24,500 -1,950 Descending Atlanta Center
Thu 10:19:04 AM 32.8197 -83.3886 318° Northwest 456 525 22,500 -2,000 Descending Atlanta Center
Thu 10:20:04 AM 32.9122 -83.4869 319° Northwest 451 519 20,500 -1,950 Descending Atlanta Center
Thu 10:21:04 AM 33.0003 -83.5781 317° Northwest 437 503 18,600 -2,050 Descending Atlanta Center
Thu 10:22:04 AM 33.0903 -83.6769 319° Northwest 425 489 16,400 -2,200 Descending Atlanta Center
Thu 10:23:04 AM 33.1739 -83.7633 314° West 400 460 14,200 -1,250 Descending Atlanta Center
Thu 10:24:04 AM 33.2494 -83.8575 308° West 395 455 13,900 -850 Descending Atlanta Center
Thu 10:25:04 AM 33.3161 -83.9592 308° West 389 448 12,500 -950 Descending Atlanta Center
Thu 10:26:04 AM 33.3808 -84.0586 308° West 389 448 12,000 -238 Descending Atlanta Center
Thu 10:27:10 AM 33.4500 -84.1667 309° West 385 443 12,000  Level Atlanta TRACON
Thu 10:28:16 AM 33.5167 -84.2667 292° West 344 396 12,000 -600 Level Atlanta TRACON
Thu 10:29:10 AM 33.5500 -84.3667 270° West 308 354 10,800 -1,368 Descending Atlanta TRACON
Thu 10:30:10 AM 33.5500 -84.4667 270° West 310 357 9,400 -1,550 Descending Atlanta TRACON
Thu 10:31:10 AM 33.5500 -84.5667 270° West 282 325 7,700 -1,800 Descending Atlanta TRACON
Thu 10:32:10 AM 33.5500 -84.6500 309° West 273 314 5,800 -1,800 Descending Atlanta TRACON
Thu 10:33:10 AM 33.5833 -84.7000 40° Northeast 280 322 4,100 -1,150 Descending Atlanta TRACON
Thu 10:34:10 AM 33.6333 -84.6500 90° East 223 257 3,500 -300 Descending Atlanta TRACON
Thu 10:35:10 AM 33.6333 -84.5833 90° East 190 219 3,500 -211 Level Atlanta TRACON
Thu 10:36:04 AM 33.6333 -84.5333 90° East 192 221 3,100 -1,053 Descending Atlanta TRACON
Thu 10:37:04 AM 33.6333 -84.4667 90° East 167 192 1,500 -1,600 Descending Atlanta TRACON

Login

Don't have an account? Register now (free) for customized features, flight alerts, and more!